sensor_id;sensor_type;location;lat;lon;timestamp;P1;durP1;ratioP1;P2;durP2;ratioP2
39740;SDS011;25426;53.478;10.190;2023-12-20T09:05:28;16.80;;;6.07;;
39740;SDS011;25426;53.478;10.190;2023-12-20T09:07:59;17.52;;;5.80;;
39740;SDS011;25426;53.478;10.190;2023-12-20T09:10:30;20.88;;;6.15;;
39740;SDS011;25426;53.478;10.190;2023-12-20T11:37:48;8.95;;;2.28;;
39740;SDS011;25426;53.478;10.190;2023-12-20T11:40:19;7.18;;;2.00;;
39740;SDS011;25426;53.478;10.190;2023-12-20T11:42:52;7.40;;;2.38;;
39740;SDS011;25426;53.478;10.190;2023-12-20T11:45:24;8.40;;;1.90;;
39740;SDS011;25426;53.478;10.190;2023-12-20T11:47:56;9.05;;;2.35;;
39740;SDS011;25426;53.478;10.190;2023-12-20T11:50:27;9.45;;;3.10;;
39740;SDS011;25426;53.478;10.190;2023-12-20T11:52:59;9.93;;;2.78;;
39740;SDS011;25426;53.478;10.190;2023-12-20T11:55:30;9.75;;;3.20;;
39740;SDS011;25426;53.478;10.190;2023-12-20T11:58:01;11.43;;;3.28;;
39740;SDS011;25426;53.478;10.190;2023-12-20T12:00:33;10.73;;;2.58;;
39740;SDS011;25426;53.478;10.190;2023-12-20T12:03:04;10.50;;;2.72;;
39740;SDS011;25426;53.478;10.190;2023-12-20T12:05:35;15.27;;;3.42;;
39740;SDS011;25426;53.478;10.190;2023-12-20T12:08:06;15.82;;;4.05;;
39740;SDS011;25426;53.478;10.190;2023-12-20T12:10:37;12.43;;;3.42;;
39740;SDS011;25426;53.478;10.190;2023-12-20T12:13:08;11.82;;;3.15;;
39740;SDS011;25426;53.478;10.190;2023-12-20T12:15:39;16.67;;;4.27;;
39740;SDS011;25426;53.478;10.190;2023-12-20T12:18:15;14.90;;;3.67;;
39740;SDS011;25426;53.478;10.190;2023-12-20T12:20:47;14.70;;;3.60;;
39740;SDS011;25426;53.478;10.190;2023-12-20T12:23:22;11.10;;;3.92;;
39740;SDS011;25426;53.478;10.190;2023-12-20T12:25:55;13.40;;;4.00;;
39740;SDS011;25426;53.478;10.190;2023-12-20T12:28:26;13.67;;;4.00;;
39740;SDS011;25426;53.478;10.190;2023-12-20T12:30:58;11.88;;;3.80;;
39740;SDS011;25426;53.478;10.190;2023-12-20T12:33:29;14.88;;;3.47;;
39740;SDS011;25426;53.478;10.190;2023-12-20T12:36:01;13.60;;;3.92;;
39740;SDS011;25426;53.478;10.190;2023-12-20T12:38:34;12.88;;;3.35;;
39740;SDS011;25426;53.478;10.190;2023-12-20T12:41:04;13.00;;;3.78;;
39740;SDS011;25426;53.478;10.190;2023-12-20T12:43:36;14.60;;;3.88;;
39740;SDS011;25426;53.478;10.190;2023-12-20T12:46:07;12.25;;;3.80;;
39740;SDS011;25426;53.478;10.190;2023-12-20T12:48:38;15.65;;;4.32;;
39740;SDS011;25426;53.478;10.190;2023-12-20T12:51:09;15.40;;;4.83;;
39740;SDS011;25426;53.478;10.190;2023-12-20T12:53:43;15.63;;;3.58;;
39740;SDS011;25426;53.478;10.190;2023-12-20T12:56:14;15.90;;;4.10;;
39740;SDS011;25426;53.478;10.190;2023-12-20T12:58:45;13.13;;;3.80;;
39740;SDS011;25426;53.478;10.190;2023-12-20T13:01:16;13.90;;;4.10;;
39740;SDS011;25426;53.478;10.190;2023-12-20T13:03:47;15.10;;;3.70;;
39740;SDS011;25426;53.478;10.190;2023-12-20T13:06:18;14.80;;;4.13;;
39740;SDS011;25426;53.478;10.190;2023-12-20T13:08:49;13.98;;;4.28;;
39740;SDS011;25426;53.478;10.190;2023-12-20T13:11:20;13.30;;;3.60;;
39740;SDS011;25426;53.478;10.190;2023-12-20T13:13:51;11.07;;;3.50;;
39740;SDS011;25426;53.478;10.190;2023-12-20T13:16:22;14.35;;;3.65;;
39740;SDS011;25426;53.478;10.190;2023-12-20T13:18:54;15.68;;;4.20;;
39740;SDS011;25426;53.478;10.190;2023-12-20T13:21:26;14.98;;;4.00;;
39740;SDS011;25426;53.478;10.190;2023-12-20T13:23:56;16.83;;;4.40;;
39740;SDS011;25426;53.478;10.190;2023-12-20T13:26:27;16.45;;;4.78;;
39740;SDS011;25426;53.478;10.190;2023-12-20T13:28:58;15.73;;;4.32;;
39740;SDS011;25426;53.478;10.190;2023-12-20T13:31:29;19.37;;;4.67;;
39740;SDS011;25426;53.478;10.190;2023-12-20T13:34:01;12.55;;;4.25;;
39740;SDS011;25426;53.478;10.190;2023-12-20T13:36:32;16.83;;;4.37;;
39740;SDS011;25426;53.478;10.190;2023-12-20T13:39:03;11.85;;;4.45;;
39740;SDS011;25426;53.478;10.190;2023-12-20T13:41:35;18.17;;;4.82;;
39740;SDS011;25426;53.478;10.190;2023-12-20T13:44:05;14.30;;;4.30;;
